Wetterstation Vordersexau
Wetterdaten: Woche 19.01.15 - 25.01.15 (KW4)
Datum Zeit Temp. A. Feuchte A. Luftdruck Regen Wind Richtung Taupunkt Windchill Windben
19.01.2015 00:00 -2,6 C 87 % 1010,8 hPa 0,0 l/m 0,0 km/h NW -4,5 C -2,6 C 0,0 km/h
19.01.2015 01:00 -2,5 C 87 % 1010,1 hPa 0,0 l/m 0,0 km/h NW -4,4 C -2,5 C 0,0 km/h
19.01.2015 02:00 -2,6 C 87 % 1009,9 hPa 0,0 l/m 0,0 km/h NW -4,5 C -2,6 C 0,0 km/h
19.01.2015 03:00 -3,2 C 87 % 1009,6 hPa 0,0 l/m 0,0 km/h NW -5,0 C -3,2 C 0,0 km/h
19.01.2015 04:00 -3,0 C 87 % 1009,6 hPa 0,0 l/m 0,0 km/h NW -4,9 C -3,0 C 0,0 km/h
19.01.2015 05:00 -2,4 C 87 % 1009,3 hPa 0,0 l/m 0,0 km/h SO -4,3 C -2,4 C 0,0 km/h
19.01.2015 06:00 -1,6 C 87 % 1009,3 hPa 0,0 l/m 0,0 km/h SO -3,5 C -1,6 C 0,0 km/h
19.01.2015 07:00 -1,3 C 87 % 1009,6 hPa 0,0 l/m 0,0 km/h SO -3,2 C -1,3 C 0,0 km/h
19.01.2015 08:00 -0,8 C 87 % 1009,5 hPa 0,0 l/m 0,0 km/h SO -2,7 C -0,8 C 0,0 km/h
19.01.2015 09:00 -0,2 C 86 % 1009,6 hPa 0,0 l/m 0,0 km/h SO -2,3 C -0,2 C 0,0 km/h
19.01.2015 10:00 0,8 C 86 % 1009,5 hPa 0,0 l/m 0,0 km/h SO -1,3 C 0,8 C 0,0 km/h
19.01.2015 11:00 1,5 C 86 % 1009,2 hPa 0,0 l/m 0,0 km/h O-NO -0,6 C 1,5 C 0,0 km/h
19.01.2015 12:00 1,8 C 87 % 1008,9 hPa 0,0 l/m 0,0 km/h O-NO -0,1 C 1,8 C 0,0 km/h
19.01.2015 13:00 2,0 C 87 % 1008,4 hPa 0,0 l/m 0,0 km/h O-NO 0,1 C 2,0 C 0,0 km/h
19.01.2015 14:00 2,1 C 87 % 1008,1 hPa 0,0 l/m 0,0 km/h NW 0,2 C 2,1 C 0,0 km/h
19.01.2015 15:00 2,2 C 87 % 1008,0 hPa 0,8 l/m 0,0 km/h NW 0,3 C 2,2 C 0,0 km/h
19.01.2015 16:00 2,1 C 87 % 1007,9 hPa 0,8 l/m 0,0 km/h NW 0,2 C 2,1 C 0,0 km/h
19.01.2015 17:00 2,0 C 87 % 1008,0 hPa 0,8 l/m 0,0 km/h NW 0,1 C 2,0 C 0,0 km/h
19.01.2015 18:00 1,9 C 87 % 1007,8 hPa 0,0 l/m 0,0 km/h NW -0,0 C 1,9 C 0,0 km/h
19.01.2015 19:00 1,8 C 87 % 1007,6 hPa 0,8 l/m 0,0 km/h NW -0,1 C 1,8 C 0,0 km/h
19.01.2015 20:00 1,7 C 86 % 1007,7 hPa 0,0 l/m 0,0 km/h NW -0,4 C 1,7 C 0,0 km/h
19.01.2015 21:00 1,9 C 86 % 1008,0 hPa 0,0 l/m 0,0 km/h NW -0,2 C 1,9 C 0,0 km/h
19.01.2015 22:00 1,9 C 86 % 1007,9 hPa 0,0 l/m 0,0 km/h NW -0,2 C 1,9 C 0,0 km/h
19.01.2015 23:00 1,9 C 86 % 1007,8 hPa 0,8 l/m 0,0 km/h NW -0,2 C 1,9 C 0,0 km/h
20.01.2015 00:00 2,0 C 86 % 1008,1 hPa 0,0 l/m 33,0 km/h NW -0,1 C -11,4 C 18,4 km/h
20.01.2015 01:00 1,9 C 86 % 1008,0 hPa 0,8 l/m 0,0 km/h W -0,2 C 1,9 C 0,0 km/h
20.01.2015 02:00 1,4 C 85 % 1008,1 hPa 0,8 l/m 0,0 km/h W -0,8 C 1,4 C 0,0 km/h
20.01.2015 03:00 0,6 C 86 % 1008,0 hPa 0,8 l/m 0,0 km/h W -1,5 C 0,6 C 0,0 km/h
20.01.2015 04:00 0,3 C 86 % 1007,9 hPa 0,0 l/m 0,0 km/h W -1,8 C 0,3 C 0,0 km/h
20.01.2015 05:00 0,3 C 86 % 1007,7 hPa 0,0 l/m 0,0 km/h W -1,8 C 0,3 C 0,0 km/h
20.01.2015 06:00 0,4 C 86 % 1007,7 hPa 0,0 l/m 0,0 km/h W -1,7 C 0,4 C 0,0 km/h
20.01.2015 07:00 0,5 C 86 % 1008,1 hPa 0,8 l/m 0,0 km/h W -1,6 C 0,5 C 0,0 km/h
20.01.2015 08:00 0,5 C 86 % 1008,5 hPa 0,0 l/m 0,0 km/h W -1,6 C 0,5 C 0,0 km/h
20.01.2015 09:00 0,7 C 85 % 1008,8 hPa 0,8 l/m 0,0 km/h W -1,5 C 0,7 C 0,0 km/h
20.01.2015 10:00 1,3 C 85 % 1009,0 hPa 0,0 l/m 0,0 km/h W -0,9 C 1,3 C 0,0 km/h
20.01.2015 11:00 1,6 C 85 % 1008,9 hPa 1,6 l/m 0,0 km/h W -0,6 C 1,6 C 0,0 km/h
20.01.2015 12:00 1,8 C 86 % 1009,0 hPa 0,0 l/m 0,0 km/h W -0,3 C 1,8 C 0,0 km/h
20.01.2015 13:00 1,9 C 86 % 1008,7 hPa 0,0 l/m 0,0 km/h W-NW -0,2 C 1,9 C 0,0 km/h
20.01.2015 14:00 1,9 C 87 % 1008,8 hPa 0,0 l/m 0,0 km/h N -0,0 C 1,9 C 0,0 km/h
20.01.2015 15:00 2,4 C 87 % 1008,8 hPa 0,0 l/m 0,0 km/h NW 0,5 C 2,4 C 0,0 km/h
20.01.2015 16:00 1,4 C 88 % 1008,9 hPa 0,0 l/m 0,0 km/h NW -0,4 C 1,4 C 0,0 km/h
20.01.2015 17:00 1,3 C 87 % 1009,3 hPa 0,0 l/m 0,0 km/h W-NW -0,6 C 1,3 C 0,0 km/h
20.01.2015 18:00 0,9 C 87 % 1009,1 hPa 0,0 l/m 0,0 km/h W-NW -1,0 C 0,9 C 0,0 km/h
20.01.2015 19:00 0,6 C 87 % 1009,2 hPa 0,0 l/m 0,0 km/h W-NW -1,3 C 0,6 C 0,0 km/h
20.01.2015 20:00 0,4 C 87 % 1009,4 hPa 0,0 l/m 0,0 km/h W-NW -1,5 C 0,4 C 0,0 km/h
20.01.2015 21:00 0,4 C 87 % 1009,5 hPa 0,0 l/m 0,0 km/h W-NW -1,5 C 0,4 C 0,0 km/h
20.01.2015 22:00 0,4 C 87 % 1009,5 hPa 0,0 l/m 0,0 km/h W-NW -1,5 C 0,4 C 0,0 km/h
20.01.2015 23:00 0,4 C 87 % 1009,4 hPa 0,0 l/m 0,0 km/h W-NW -1,5 C 0,4 C 0,0 km/h
21.01.2015 00:00 0,3 C 87 % 1009,2 hPa 0,0 l/m 0,0 km/h W-NW -1,6 C 0,3 C 0,0 km/h
21.01.2015 01:00 0,3 C 87 % 1008,8 hPa 0,0 l/m 0,0 km/h W-NW -1,6 C 0,3 C 0,0 km/h
21.01.2015 02:00 0,4 C 87 % 1008,2 hPa 0,0 l/m 0,0 km/h W-NW -1,5 C 0,4 C 0,0 km/h
21.01.2015 03:00 0,4 C 86 % 1007,9 hPa 0,0 l/m 0,0 km/h W-NW -1,7 C 0,4 C 0,0 km/h
21.01.2015 04:00 0,3 C 86 % 1007,4 hPa 0,0 l/m 0,0 km/h W-NW -1,8 C 0,3 C 0,0 km/h
21.01.2015 05:00 0,3 C 86 % 1007,7 hPa 0,0 l/m 0,0 km/h W-NW -1,8 C 0,3 C 0,0 km/h
21.01.2015 06:00 0,3 C 86 % 1007,2 hPa 0,0 l/m 0,0 km/h W-NW -1,8 C 0,3 C 0,0 km/h
21.01.2015 07:00 -0,4 C 86 % 1007,0 hPa 0,0 l/m 4,5 km/h W-NW -2,4 C -0,4 C 2,5 km/h
21.01.2015 08:00 0,2 C 85 % 1007,7 hPa 0,0 l/m 0,0 km/h W-NW -2,0 C 0,2 C 0,0 km/h
21.01.2015 09:00 1,1 C 84 % 1007,1 hPa 0,0 l/m 0,0 km/h W-NW -1,3 C 1,1 C 0,0 km/h
21.01.2015 10:00 3,5 C 87 % 1007,4 hPa 0,0 l/m 0,0 km/h W 1,5 C 3,5 C 0,0 km/h
21.01.2015 11:00 2,7 C 87 % 1007,2 hPa 0,0 l/m 0,0 km/h W 0,8 C 2,7 C 0,0 km/h
21.01.2015 12:00 3,4 C 87 % 1006,8 hPa 0,0 l/m 0,0 km/h W 1,4 C 3,4 C 0,0 km/h
21.01.2015 13:00 3,9 C 85 % 1006,0 hPa 0,0 l/m 0,0 km/h NW 1,6 C 3,9 C 0,0 km/h
21.01.2015 14:00 3,1 C 86 % 1005,7 hPa 0,0 l/m 0,0 km/h NW 1,0 C 3,1 C 0,0 km/h
21.01.2015 15:00 2,8 C 86 % 1005,4 hPa 0,0 l/m 0,0 km/h NW 0,7 C 2,8 C 0,0 km/h
21.01.2015 16:00 2,3 C 87 % 1005,5 hPa 0,0 l/m 0,0 km/h NW 0,4 C 2,3 C 0,0 km/h
21.01.2015 17:00 2,1 C 87 % 1005,6 hPa 0,0 l/m 0,0 km/h NW 0,2 C 2,1 C 0,0 km/h
21.01.2015 18:00 1,9 C 87 % 1005,6 hPa 0,0 l/m 0,0 km/h NW -0,0 C 1,9 C 0,0 km/h
21.01.2015 19:00 0,8 C 87 % 1005,8 hPa 0,0 l/m 0,0 km/h NW -1,1 C 0,8 C 0,0 km/h
21.01.2015 20:00 0,4 C 87 % 1005,9 hPa 0,0 l/m 0,0 km/h NW -1,5 C 0,4 C 0,0 km/h
21.01.2015 21:00 -0,1 C 88 % 1006,1 hPa 0,0 l/m 0,0 km/h NW -1,8 C -0,1 C 0,0 km/h
21.01.2015 22:00 -0,2 C 87 % 1006,2 hPa 0,0 l/m 0,0 km/h NW -2,1 C -0,2 C 0,0 km/h
21.01.2015 23:00 -1,2 C 88 % 1006,4 hPa 0,0 l/m 0,0 km/h N-NW -2,9 C -1,2 C 0,0 km/h
22.01.2015 00:00 -1,9 C 87 % 1006,2 hPa 0,0 l/m 0,0 km/h N-NW -3,8 C -1,9 C 0,0 km/h
22.01.2015 01:00 -1,9 C 87 % 1006,2 hPa 0,0 l/m 0,0 km/h N-NW -3,8 C -1,9 C 0,0 km/h
22.01.2015 02:00 -1,9 C 87 % 1006,4 hPa 0,0 l/m 0,0 km/h N-NW -3,8 C -1,9 C 0,0 km/h
22.01.2015 03:00 -1,6 C 87 % 1006,2 hPa 0,0 l/m 0,0 km/h N-NW -3,5 C -1,6 C 0,0 km/h
22.01.2015 04:00 -1,6 C 87 % 1006,5 hPa 0,0 l/m 0,0 km/h N-NW -3,5 C -1,6 C 0,0 km/h
22.01.2015 05:00 -1,1 C 87 % 1006,9 hPa 0,0 l/m 0,0 km/h N-NW -3,0 C -1,1 C 0,0 km/h
22.01.2015 06:00 -1,0 C 86 % 1007,7 hPa 0,0 l/m 0,0 km/h N-NW -3,0 C -1,0 C 0,0 km/h
22.01.2015 07:00 -0,7 C 86 % 1008,1 hPa 0,0 l/m 0,0 km/h N-NW -2,7 C -0,7 C 0,0 km/h
22.01.2015 08:00 -0,5 C 86 % 1008,9 hPa 0,0 l/m 0,0 km/h N-NW -2,5 C -0,5 C 0,0 km/h
22.01.2015 09:00 -0,1 C 86 % 1009,7 hPa 0,0 l/m 0,0 km/h NW -2,2 C -0,1 C 0,0 km/h
22.01.2015 10:00 1,1 C 85 % 1010,3 hPa 0,0 l/m 0,0 km/h NW -1,1 C 1,1 C 0,0 km/h
22.01.2015 11:00 0,9 C 85 % 1010,3 hPa 0,0 l/m 0,0 km/h NW -1,3 C 0,9 C 0,0 km/h
22.01.2015 12:00 1,6 C 85 % 1010,4 hPa 0,0 l/m 0,0 km/h NW -0,6 C 1,6 C 0,0 km/h
22.01.2015 13:00 1,6 C 87 % 1010,9 hPa 0,0 l/m 0,0 km/h NW -0,3 C 1,6 C 0,0 km/h
22.01.2015 14:00 2,1 C 88 % 1011,2 hPa 0,0 l/m 0,0 km/h NW 0,3 C 2,1 C 0,0 km/h
22.01.2015 15:00 1,6 C 88 % 1011,6 hPa 0,0 l/m 0,0 km/h NW -0,2 C 1,6 C 0,0 km/h
22.01.2015 16:00 1,4 C 88 % 1012,5 hPa 0,0 l/m 0,0 km/h NW -0,4 C 1,4 C 0,0 km/h
22.01.2015 17:00 1,3 C 87 % 1013,1 hPa 0,0 l/m 0,0 km/h N-NW -0,6 C 1,3 C 0,0 km/h
22.01.2015 18:00 1,2 C 87 % 1013,5 hPa 0,0 l/m 0,0 km/h N-NW -0,7 C 1,2 C 0,0 km/h
22.01.2015 19:00 1,1 C 87 % 1014,2 hPa 0,0 l/m 0,0 km/h N-NW -0,8 C 1,1 C 0,0 km/h
22.01.2015 20:00 0,9 C 87 % 1014,6 hPa 0,0 l/m 0,0 km/h N-NW -1,0 C 0,9 C 0,0 km/h
22.01.2015 21:00 0,8 C 87 % 1015,0 hPa 0,0 l/m 0,0 km/h N-NW -1,1 C 0,8 C 0,0 km/h
22.01.2015 22:00 0,7 C 87 % 1015,1 hPa 0,0 l/m 0,0 km/h N-NW -1,2 C 0,7 C 0,0 km/h
22.01.2015 23:00 0,5 C 86 % 1015,4 hPa 0,0 l/m 0,0 km/h NW -1,6 C 0,5 C 0,0 km/h
23.01.2015 00:00 0,4 C 86 % 1015,7 hPa 0,0 l/m 0,0 km/h NW -1,7 C 0,4 C 0,0 km/h
23.01.2015 01:00 0,3 C 85 % 1016,0 hPa 0,0 l/m 0,0 km/h NW -1,9 C 0,3 C 0,0 km/h
23.01.2015 02:00 0,2 C 85 % 1016,3 hPa 0,0 l/m 0,0 km/h NW -2,0 C 0,2 C 0,0 km/h
23.01.2015 03:00 0,1 C 85 % 1016,5 hPa 0,0 l/m 0,0 km/h W -2,1 C 0,1 C 0,0 km/h
23.01.2015 04:00 0,1 C 85 % 1016,8 hPa 0,0 l/m 0,0 km/h W -2,1 C 0,1 C 0,0 km/h
23.01.2015 05:00 0,1 C 85 % 1017,2 hPa 0,0 l/m 0,0 km/h W -2,1 C 0,1 C 0,0 km/h
23.01.2015 06:00 0,1 C 85 % 1017,5 hPa 0,0 l/m 0,0 km/h W -2,1 C 0,1 C 0,0 km/h
23.01.2015 07:00 0,2 C 85 % 1017,9 hPa 0,0 l/m 0,0 km/h W -2,0 C 0,2 C 0,0 km/h
23.01.2015 08:00 0,4 C 84 % 1018,6 hPa 0,0 l/m 0,0 km/h W -2,0 C 0,4 C 0,0 km/h
23.01.2015 09:00 0,9 C 84 % 1019,0 hPa 0,8 l/m 0,0 km/h W -1,5 C 0,9 C 0,0 km/h
23.01.2015 10:00 1,6 C 84 % 1019,8 hPa 0,0 l/m 0,0 km/h W -0,8 C 1,6 C 0,0 km/h
23.01.2015 11:00 1,8 C 85 % 1019,8 hPa 0,0 l/m 0,0 km/h W-NW -0,4 C 1,8 C 0,0 km/h
23.01.2015 12:00 2,1 C 86 % 1019,5 hPa 0,0 l/m 0,0 km/h NW 0,0 C 2,1 C 0,0 km/h
23.01.2015 13:00 2,3 C 87 % 1019,4 hPa 0,0 l/m 0,0 km/h W-NW 0,4 C 2,3 C 0,0 km/h
23.01.2015 14:00 2,1 C 88 % 1019,6 hPa 0,0 l/m 0,0 km/h N 0,3 C 2,1 C 0,0 km/h
23.01.2015 15:00 2,0 C 88 % 1020,1 hPa 0,0 l/m 0,0 km/h N-NO 0,2 C 2,0 C 0,0 km/h
23.01.2015 16:00 1,8 C 88 % 1020,7 hPa 0,0 l/m 0,0 km/h N-NO 0,0 C 1,8 C 0,0 km/h
23.01.2015 17:00 1,6 C 88 % 1021,3 hPa 0,0 l/m 0,0 km/h N-NO -0,2 C 1,6 C 0,0 km/h
23.01.2015 18:00 1,6 C 88 % 1021,7 hPa 0,0 l/m 0,0 km/h N-NO -0,2 C 1,6 C 0,0 km/h
23.01.2015 19:00 1,5 C 88 % 1021,9 hPa 0,0 l/m 0,0 km/h N -0,3 C 1,5 C 0,0 km/h
23.01.2015 20:00 1,5 C 88 % 1022,3 hPa 0,0 l/m 0,0 km/h N -0,3 C 1,5 C 0,0 km/h
23.01.2015 21:00 1,5 C 88 % 1022,1 hPa 0,0 l/m 0,0 km/h N -0,3 C 1,5 C 0,0 km/h
23.01.2015 22:00 1,4 C 88 % 1022,1 hPa 0,0 l/m 0,0 km/h N -0,4 C 1,4 C 0,0 km/h
23.01.2015 23:00 1,4 C 87 % 1022,2 hPa 0,0 l/m 0,0 km/h N -0,5 C 1,4 C 0,0 km/h
24.01.2015 00:00 1,5 C 88 % 1022,1 hPa 0,0 l/m 0,0 km/h N -0,3 C 1,5 C 0,0 km/h
24.01.2015 01:00 1,4 C 88 % 1021,6 hPa 0,0 l/m 0,0 km/h N -0,4 C 1,4 C 0,0 km/h
24.01.2015 02:00 1,4 C 88 % 1021,5 hPa 0,0 l/m 0,0 km/h N -0,4 C 1,4 C 0,0 km/h
24.01.2015 03:00 1,2 C 87 % 1021,1 hPa 0,0 l/m 0,0 km/h N-NW -0,7 C 1,2 C 0,0 km/h
24.01.2015 04:00 1,0 C 87 % 1020,6 hPa 0,0 l/m 0,0 km/h N-NW -0,9 C 1,0 C 0,0 km/h
24.01.2015 05:00 0,9 C 88 % 1020,5 hPa 0,0 l/m 0,0 km/h N-NW -0,9 C 0,9 C 0,0 km/h
24.01.2015 06:00 0,6 C 88 % 1020,3 hPa 0,0 l/m 0,0 km/h N-NW -1,2 C 0,6 C 0,0 km/h
24.01.2015 07:00 0,6 C 88 % 1020,4 hPa 0,0 l/m 0,0 km/h N -1,2 C 0,6 C 0,0 km/h
24.01.2015 08:00 0,8 C 87 % 1020,2 hPa 0,0 l/m 0,0 km/h N -1,1 C 0,8 C 0,0 km/h
24.01.2015 09:00 1,5 C 88 % 1019,9 hPa 0,0 l/m 0,0 km/h SO -0,3 C 1,5 C 0,0 km/h
24.01.2015 10:00 2,5 C 87 % 1019,2 hPa 0,0 l/m 0,0 km/h W-SW 0,6 C 2,5 C 0,0 km/h
24.01.2015 11:00 5,3 C 81 % 1018,7 hPa 0,0 l/m 1,9 km/h W-SW 2,3 C 5,3 C 1,1 km/h
24.01.2015 12:00 4,4 C 78 % 1018,2 hPa 0,0 l/m 22,7 km/h W 0,9 C -5,0 C 12,6 km/h
24.01.2015 13:00 3,9 C 79 % 1017,6 hPa 0,0 l/m 9,7 km/h W 0,6 C 1,1 C 5,4 km/h
24.01.2015 14:00 2,9 C 80 % 1017,7 hPa 0,0 l/m 5,8 km/h S-SW -0,2 C 2,9 C 3,2 km/h
24.01.2015 15:00 1,5 C 85 % 1018,3 hPa 0,0 l/m 15,6 km/h W-SW -0,7 C -5,5 C 8,6 km/h
24.01.2015 16:00 0,5 C 87 % 1018,8 hPa 0,0 l/m 7,1 km/h W-SW -1,4 C -0,2 C 4,0 km/h
24.01.2015 17:00 0,2 C 88 % 1019,8 hPa 0,0 l/m 8,4 km/h SW -1,5 C -1,8 C 4,7 km/h
24.01.2015 18:00 0,1 C 87 % 1020,5 hPa 0,0 l/m 0,0 km/h W -1,8 C 0,1 C 0,0 km/h
24.01.2015 19:00 0,2 C 87 % 1021,4 hPa 0,0 l/m 0,0 km/h W -1,7 C 0,2 C 0,0 km/h
24.01.2015 20:00 0,2 C 87 % 1022,1 hPa 0,0 l/m 0,0 km/h W -1,7 C 0,2 C 0,0 km/h
24.01.2015 21:00 0,1 C 86 % 1022,7 hPa 0,0 l/m 0,0 km/h W -2,0 C 0,1 C 0,0 km/h
24.01.2015 22:00 0,0 C 86 % 1022,8 hPa 0,0 l/m 0,0 km/h W -2,1 C 0,0 C 0,0 km/h
24.01.2015 23:00 0,0 C 86 % 1023,3 hPa 0,0 l/m 0,0 km/h W -2,1 C 0,0 C 0,0 km/h
25.01.2015 00:00 0,1 C 86 % 1023,8 hPa 0,0 l/m 0,0 km/h W -2,0 C 0,1 C 0,0 km/h
25.01.2015 01:00 -0,1 C 86 % 1024,1 hPa 0,0 l/m 0,0 km/h W -2,2 C -0,1 C 0,0 km/h
25.01.2015 02:00 -0,1 C 86 % 1024,7 hPa 0,0 l/m 0,0 km/h W -2,2 C -0,1 C 0,0 km/h
25.01.2015 03:00 -0,1 C 86 % 1025,1 hPa 0,0 l/m 0,0 km/h S-SW -2,2 C -0,1 C 0,0 km/h
25.01.2015 04:00 -0,1 C 86 % 1025,4 hPa 0,0 l/m 0,0 km/h SW -2,2 C -0,1 C 0,0 km/h
25.01.2015 05:00 -0,5 C 86 % 1025,9 hPa 0,0 l/m 0,0 km/h SW -2,5 C -0,5 C 0,0 km/h
25.01.2015 06:00 -0,2 C 85 % 1026,6 hPa 0,0 l/m 0,0 km/h SW -2,4 C -0,2 C 0,0 km/h
25.01.2015 07:00 -0,4 C 85 % 1027,1 hPa 0,0 l/m 0,0 km/h S-SW -2,6 C -0,4 C 0,0 km/h
25.01.2015 08:00 -0,1 C 85 % 1027,9 hPa 0,0 l/m 0,0 km/h S-SW -2,3 C -0,1 C 0,0 km/h
25.01.2015 09:00 1,1 C 84 % 1028,0 hPa 0,0 l/m 0,0 km/h S-SW -1,3 C 1,1 C 0,0 km/h
25.01.2015 10:00 2,4 C 82 % 1028,7 hPa 0,0 l/m 0,0 km/h S-SW -0,4 C 2,4 C 0,0 km/h
25.01.2015 11:00 3,1 C 84 % 1028,4 hPa 0,8 l/m 0,0 km/h S-SW 0,7 C 3,1 C 0,0 km/h
25.01.2015 12:00 4,4 C 88 % 1028,0 hPa 1,6 l/m 0,0 km/h SW 2,6 C 4,4 C 0,0 km/h
25.01.2015 13:00 9,3 C 81 % 1027,2 hPa 1,6 l/m 0,0 km/h N 6,2 C 9,3 C 0,0 km/h
25.01.2015 14:00 5,9 C 76 % 1027,0 hPa 0,0 l/m 0,0 km/h NW 2,0 C 5,9 C 0,0 km/h
25.01.2015 15:00 4,6 C 79 % 1027,1 hPa 0,0 l/m 0,0 km/h W-NW 1,3 C 4,6 C 0,0 km/h
25.01.2015 16:00 2,9 C 83 % 1027,4 hPa 0,0 l/m 0,0 km/h W-NW 0,3 C 2,9 C 0,0 km/h
25.01.2015 17:00 1,7 C 84 % 1027,6 hPa 0,0 l/m 0,0 km/h W-NW -0,7 C 1,7 C 0,0 km/h
25.01.2015 18:00 1,1 C 86 % 1028,0 hPa 0,0 l/m 0,0 km/h W-NW -1,0 C 1,1 C 0,0 km/h
25.01.2015 19:00 1,1 C 87 % 1027,7 hPa 0,0 l/m 0,0 km/h NW -0,8 C 1,1 C 0,0 km/h
25.01.2015 20:00 0,1 C 87 % 1027,5 hPa 0,0 l/m 0,0 km/h NW -1,8 C 0,1 C 0,0 km/h
25.01.2015 21:00 -0,2 C 87 % 1027,4 hPa 0,0 l/m 0,0 km/h NW -2,1 C -0,2 C 0,0 km/h
25.01.2015 22:00 -0,3 C 88 % 1027,2 hPa 0,0 l/m 0,0 km/h W-NW -2,0 C -0,3 C 0,0 km/h
25.01.2015 23:00 -0,2 C 88 % 1027,0 hPa 0,0 l/m 0,0 km/h W-NW -1,9 C -0,2 C 0,0 km/h
Min-Datum _ 19.01.15 25.01.15 21.01.15 - 19.01.15 - 19.01.15 20.01.15 19.01.15
_ Min-Zeit 03:53 14:53 15:53 - 00:53 - 03:53 00:53 00:53
Minimum _ -3,2 C 76 % 1005,4 hPa - 0,0 km/h - -5,0 C -11,4 C 0,0 km/h
Max-Datum _ 25.01.15 20.01.15 25.01.15 20.01.15 20.01.15 - 25.01.15 25.01.15 20.01.15
_ Max-Zeit 13:53 16:53 10:53 11:53 00:53 - 13:53 13:53 00:53
Maximum _ 9,3 C 88 % 1028,7 hPa 1,6 l/m 33,0 km/h
NW
- 6,2 C 9,3 C 18,4 km/h
NW
Durchschnitt _ 0,9 C 86 % 1014,5 hPa #14,0 l/m 0,6 km/h NW -1,1 C 0,7 C 0,4 km/h
www.sexauwetter.de